sensor_id;sensor_type;location;lat;lon;timestamp;P1;durP1;ratioP1;P2;durP2;ratioP2
52530;SDS011;38441;52.894;6.040;2022-08-21T00:00:53;8.35;;;3.33;;
52530;SDS011;38441;52.894;6.040;2022-08-21T00:03:18;5.57;;;3.20;;
52530;SDS011;38441;52.894;6.040;2022-08-21T00:05:46;5.82;;;2.97;;
52530;SDS011;38441;52.894;6.040;2022-08-21T00:08:14;4.30;;;2.92;;
52530;SDS011;38441;52.894;6.040;2022-08-21T00:10:41;5.65;;;3.25;;
52530;SDS011;38441;52.894;6.040;2022-08-21T00:13:09;8.60;;;3.67;;
52530;SDS011;38441;52.894;6.040;2022-08-21T00:15:36;6.47;;;3.00;;
52530;SDS011;38441;52.894;6.040;2022-08-21T00:18:04;4.03;;;2.50;;
52530;SDS011;38441;52.894;6.040;2022-08-21T00:20:31;5.72;;;2.85;;
52530;SDS011;38441;52.894;6.040;2022-08-21T00:22:57;6.25;;;2.95;;
52530;SDS011;38441;52.894;6.040;2022-08-21T00:25:23;6.53;;;2.83;;
52530;SDS011;38441;52.894;6.040;2022-08-21T00:27:49;5.50;;;2.58;;
52530;SDS011;38441;52.894;6.040;2022-08-21T00:30:16;7.55;;;2.95;;
52530;SDS011;38441;52.894;6.040;2022-08-21T00:32:43;8.02;;;3.25;;
52530;SDS011;38441;52.894;6.040;2022-08-21T00:35:12;5.35;;;3.17;;
52530;SDS011;38441;52.894;6.040;2022-08-21T00:37:41;6.63;;;2.80;;
52530;SDS011;38441;52.894;6.040;2022-08-21T00:40:09;4.80;;;2.70;;
52530;SDS011;38441;52.894;6.040;2022-08-21T00:42:37;7.97;;;3.17;;
52530;SDS011;38441;52.894;6.040;2022-08-21T00:45:04;5.32;;;3.10;;
52530;SDS011;38441;52.894;6.040;2022-08-21T00:47:30;5.25;;;3.10;;
52530;SDS011;38441;52.894;6.040;2022-08-21T00:49:56;6.90;;;2.78;;
52530;SDS011;38441;52.894;6.040;2022-08-21T00:52:24;6.28;;;2.58;;
52530;SDS011;38441;52.894;6.040;2022-08-21T00:54:55;6.05;;;3.03;;
52530;SDS011;38441;52.894;6.040;2022-08-21T00:57:24;4.97;;;2.58;;
52530;SDS011;38441;52.894;6.040;2022-08-21T00:59:58;7.47;;;3.33;;
52530;SDS011;38441;52.894;6.040;2022-08-21T01:02:26;7.45;;;3.35;;
52530;SDS011;38441;52.894;6.040;2022-08-21T01:04:52;5.82;;;3.03;;
52530;SDS011;38441;52.894;6.040;2022-08-21T01:07:18;8.80;;;3.80;;
52530;SDS011;38441;52.894;6.040;2022-08-21T01:09:45;9.57;;;3.17;;
52530;SDS011;38441;52.894;6.040;2022-08-21T01:12:12;5.85;;;3.10;;
52530;SDS011;38441;52.894;6.040;2022-08-21T01:14:39;6.85;;;2.88;;
52530;SDS011;38441;52.894;6.040;2022-08-21T01:17:07;7.70;;;3.08;;
52530;SDS011;38441;52.894;6.040;2022-08-21T01:19:35;7.88;;;3.22;;
52530;SDS011;38441;52.894;6.040;2022-08-21T01:22:01;6.20;;;2.58;;
52530;SDS011;38441;52.894;6.040;2022-08-21T01:24:28;8.60;;;4.18;;
52530;SDS011;38441;52.894;6.040;2022-08-21T01:26:53;9.68;;;3.47;;
52530;SDS011;38441;52.894;6.040;2022-08-21T01:29:23;7.25;;;3.30;;
52530;SDS011;38441;52.894;6.040;2022-08-21T01:31:55;7.43;;;3.25;;
52530;SDS011;38441;52.894;6.040;2022-08-21T01:34:22;6.00;;;2.92;;
52530;SDS011;38441;52.894;6.040;2022-08-21T01:36:48;4.93;;;2.67;;
52530;SDS011;38441;52.894;6.040;2022-08-21T01:39:15;6.15;;;2.80;;
52530;SDS011;38441;52.894;6.040;2022-08-21T01:41:41;4.43;;;2.78;;
52530;SDS011;38441;52.894;6.040;2022-08-21T01:44:06;5.95;;;2.75;;
52530;SDS011;38441;52.894;6.040;2022-08-21T01:46:32;5.57;;;2.85;;
52530;SDS011;38441;52.894;6.040;2022-08-21T01:48:58;6.32;;;3.05;;
52530;SDS011;38441;52.894;6.040;2022-08-21T01:51:24;7.80;;;3.88;;
52530;SDS011;38441;52.894;6.040;2022-08-21T01:53:50;8.48;;;3.00;;
52530;SDS011;38441;52.894;6.040;2022-08-21T01:56:16;7.78;;;3.40;;
52530;SDS011;38441;52.894;6.040;2022-08-21T01:58:43;8.63;;;3.17;;
52530;SDS011;38441;52.894;6.040;2022-08-21T02:01:11;6.97;;;3.35;;
52530;SDS011;38441;52.894;6.040;2022-08-21T02:03:37;6.28;;;3.30;;
52530;SDS011;38441;52.894;6.040;2022-08-21T02:06:04;7.22;;;3.03;;
52530;SDS011;38441;52.894;6.040;2022-08-21T02:08:32;9.52;;;3.25;;
52530;SDS011;38441;52.894;6.040;2022-08-21T02:10:58;8.00;;;3.40;;
52530;SDS011;38441;52.894;6.040;2022-08-21T02:13:23;6.72;;;3.47;;
52530;SDS011;38441;52.894;6.040;2022-08-21T02:15:49;6.28;;;2.90;;
52530;SDS011;38441;52.894;6.040;2022-08-21T02:18:15;8.52;;;3.47;;
52530;SDS011;38441;52.894;6.040;2022-08-21T02:20:42;6.90;;;2.97;;
52530;SDS011;38441;52.894;6.040;2022-08-21T02:23:11;7.68;;;3.60;;
52530;SDS011;38441;52.894;6.040;2022-08-21T02:25:38;8.40;;;3.50;;
52530;SDS011;38441;52.894;6.040;2022-08-21T02:28:05;7.82;;;4.10;;
52530;SDS011;38441;52.894;6.040;2022-08-21T02:30:35;9.27;;;3.05;;
52530;SDS011;38441;52.894;6.040;2022-08-21T02:33:04;8.15;;;2.97;;
52530;SDS011;38441;52.894;6.040;2022-08-21T02:35:31;6.50;;;3.10;;
52530;SDS011;38441;52.894;6.040;2022-08-21T02:38:01;11.10;;;3.70;;
52530;SDS011;38441;52.894;6.040;2022-08-21T02:40:31;5.85;;;2.95;;
52530;SDS011;38441;52.894;6.040;2022-08-21T02:42:59;7.88;;;3.10;;
52530;SDS011;38441;52.894;6.040;2022-08-21T02:45:27;6.80;;;3.25;;
52530;SDS011;38441;52.894;6.040;2022-08-21T02:47:57;8.45;;;3.40;;
52530;SDS011;38441;52.894;6.040;2022-08-21T02:50:29;6.32;;;3.40;;
52530;SDS011;38441;52.894;6.040;2022-08-21T02:52:57;9.43;;;3.53;;
52530;SDS011;38441;52.894;6.040;2022-08-21T02:55:24;8.10;;;3.33;;
52530;SDS011;38441;52.894;6.040;2022-08-21T02:57:52;6.60;;;3.42;;
52530;SDS011;38441;52.894;6.040;2022-08-21T03:00:19;6.85;;;4.07;;
52530;SDS011;38441;52.894;6.040;2022-08-21T03:02:47;8.52;;;4.10;;
52530;SDS011;38441;52.894;6.040;2022-08-21T03:05:13;10.27;;;3.90;;
52530;SDS011;38441;52.894;6.040;2022-08-21T03:07:40;7.13;;;4.18;;
52530;SDS011;38441;52.894;6.040;2022-08-21T03:10:07;10.57;;;4.07;;
52530;SDS011;38441;52.894;6.040;2022-08-21T03:12:34;8.73;;;3.95;;
52530;SDS011;38441;52.894;6.040;2022-08-21T03:15:03;5.85;;;3.67;;
52530;SDS011;38441;52.894;6.040;2022-08-21T03:17:31;6.97;;;3.72;;
52530;SDS011;38441;52.894;6.040;2022-08-21T03:19:57;8.10;;;4.22;;
52530;SDS011;38441;52.894;6.040;2022-08-21T03:22:23;12.80;;;4.30;;
52530;SDS011;38441;52.894;6.040;2022-08-21T03:24:50;10.80;;;4.45;;
52530;SDS011;38441;52.894;6.040;2022-08-21T03:27:16;7.93;;;3.90;;
52530;SDS011;38441;52.894;6.040;2022-08-21T03:29:42;9.18;;;4.40;;
52530;SDS011;38441;52.894;6.040;2022-08-21T03:32:08;10.02;;;3.95;;
52530;SDS011;38441;52.894;6.040;2022-08-21T03:34:35;9.93;;;3.92;;
52530;SDS011;38441;52.894;6.040;2022-08-21T03:37:06;8.88;;;3.95;;
52530;SDS011;38441;52.894;6.040;2022-08-21T03:39:32;10.27;;;4.05;;
52530;SDS011;38441;52.894;6.040;2022-08-21T03:41:59;7.97;;;4.13;;
52530;SDS011;38441;52.894;6.040;2022-08-21T03:44:26;7.40;;;3.65;;
52530;SDS011;38441;52.894;6.040;2022-08-21T03:46:53;8.63;;;3.88;;
52530;SDS011;38441;52.894;6.040;2022-08-21T03:49:20;9.13;;;4.55;;
52530;SDS011;38441;52.894;6.040;2022-08-21T03:51:45;8.77;;;4.07;;
52530;SDS011;38441;52.894;6.040;2022-08-21T03:54:11;7.80;;;3.75;;
52530;SDS011;38441;52.894;6.040;2022-08-21T03:56:36;10.57;;;3.70;;
52530;SDS011;38441;52.894;6.040;2022-08-21T03:59:02;9.48;;;4.00;;
52530;SDS011;38441;52.894;6.040;2022-08-21T04:01:28;7.82;;;4.47;;
52530;SDS011;38441;52.894;6.040;2022-08-21T04:03:54;8.50;;;4.20;;
52530;SDS011;38441;52.894;6.040;2022-08-21T04:06:20;8.65;;;4.38;;
52530;SDS011;38441;52.894;6.040;2022-08-21T04:08:47;8.65;;;4.13;;
52530;SDS011;38441;52.894;6.040;2022-08-21T04:11:13;8.07;;;3.95;;
52530;SDS011;38441;52.894;6.040;2022-08-21T04:13:39;9.02;;;4.20;;
52530;SDS011;38441;52.894;6.040;2022-08-21T04:16:06;12.98;;;4.43;;
52530;SDS011;38441;52.894;6.040;2022-08-21T04:18:32;10.43;;;4.15;;
52530;SDS011;38441;52.894;6.040;2022-08-21T04:20:58;8.50;;;4.25;;
52530;SDS011;38441;52.894;6.040;2022-08-21T04:23:26;9.82;;;3.88;;
52530;SDS011;38441;52.894;6.040;2022-08-21T04:25:53;10.35;;;4.13;;
52530;SDS011;38441;52.894;6.040;2022-08-21T04:28:21;9.10;;;4.10;;
52530;SDS011;38441;52.894;6.040;2022-08-21T04:30:47;8.05;;;3.47;;
52530;SDS011;38441;52.894;6.040;2022-08-21T04:33:14;8.32;;;3.78;;
52530;SDS011;38441;52.894;6.040;2022-08-21T04:35:40;7.55;;;3.90;;
52530;SDS011;38441;52.894;6.040;2022-08-21T04:38:07;9.10;;;3.75;;
52530;SDS011;38441;52.894;6.040;2022-08-21T04:40:42;7.47;;;3.83;;
52530;SDS011;38441;52.894;6.040;2022-08-21T04:43:10;9.88;;;3.80;;
52530;SDS011;38441;52.894;6.040;2022-08-21T04:45:37;7.95;;;3.80;;
52530;SDS011;38441;52.894;6.040;2022-08-21T04:48:05;8.75;;;4.03;;
52530;SDS011;38441;52.894;6.040;2022-08-21T04:50:38;9.25;;;4.00;;
52530;SDS011;38441;52.894;6.040;2022-08-21T04:53:05;7.53;;;3.83;;
52530;SDS011;38441;52.894;6.040;2022-08-21T04:55:33;9.77;;;4.57;;
52530;SDS011;38441;52.894;6.040;2022-08-21T04:57:59;9.10;;;3.78;;
52530;SDS011;38441;52.894;6.040;2022-08-21T05:00:25;12.75;;;4.13;;
52530;SDS011;38441;52.894;6.040;2022-08-21T05:02:52;5.88;;;4.03;;
52530;SDS011;38441;52.894;6.040;2022-08-21T05:05:21;9.52;;;4.70;;
52530;SDS011;38441;52.894;6.040;2022-08-21T05:07:47;9.80;;;4.68;;
52530;SDS011;38441;52.894;6.040;2022-08-21T05:10:14;10.30;;;4.20;;
52530;SDS011;38441;52.894;6.040;2022-08-21T05:12:40;10.43;;;4.88;;
52530;SDS011;38441;52.894;6.040;2022-08-21T05:15:07;10.30;;;4.68;;
52530;SDS011;38441;52.894;6.040;2022-08-21T05:17:33;8.20;;;4.55;;
52530;SDS011;38441;52.894;6.040;2022-08-21T05:19:59;8.43;;;4.03;;
52530;SDS011;38441;52.894;6.040;2022-08-21T05:22:25;9.63;;;4.47;;
52530;SDS011;38441;52.894;6.040;2022-08-21T05:24:51;9.57;;;4.00;;
52530;SDS011;38441;52.894;6.040;2022-08-21T05:27:20;10.25;;;4.53;;
52530;SDS011;38441;52.894;6.040;2022-08-21T05:30:04;8.43;;;4.15;;
52530;SDS011;38441;52.894;6.040;2022-08-21T05:32:32;10.43;;;4.20;;
52530;SDS011;38441;52.894;6.040;2022-08-21T05:34:58;10.95;;;4.25;;
52530;SDS011;38441;52.894;6.040;2022-08-21T05:37:25;9.85;;;3.88;;
52530;SDS011;38441;52.894;6.040;2022-08-21T05:39:51;10.20;;;3.80;;
52530;SDS011;38441;52.894;6.040;2022-08-21T05:42:17;6.35;;;3.20;;
52530;SDS011;38441;52.894;6.040;2022-08-21T05:44:43;7.38;;;3.70;;
52530;SDS011;38441;52.894;6.040;2022-08-21T05:47:09;11.18;;;3.90;;
52530;SDS011;38441;52.894;6.040;2022-08-21T05:49:36;9.05;;;3.85;;
52530;SDS011;38441;52.894;6.040;2022-08-21T05:52:03;9.82;;;4.15;;
52530;SDS011;38441;52.894;6.040;2022-08-21T05:54:29;12.00;;;4.35;;
52530;SDS011;38441;52.894;6.040;2022-08-21T05:56:55;9.52;;;3.83;;
52530;SDS011;38441;52.894;6.040;2022-08-21T05:59:21;8.23;;;4.28;;
52530;SDS011;38441;52.894;6.040;2022-08-21T06:01:47;10.43;;;4.30;;
52530;SDS011;38441;52.894;6.040;2022-08-21T06:04:13;9.60;;;3.80;;
52530;SDS011;38441;52.894;6.040;2022-08-21T06:06:40;12.95;;;4.13;;
52530;SDS011;38441;52.894;6.040;2022-08-21T06:09:06;8.50;;;3.40;;
52530;SDS011;38441;52.894;6.040;2022-08-21T06:11:33;10.05;;;4.30;;
52530;SDS011;38441;52.894;6.040;2022-08-21T06:13:59;14.60;;;3.80;;
52530;SDS011;38441;52.894;6.040;2022-08-21T06:16:26;10.75;;;4.45;;
52530;SDS011;38441;52.894;6.040;2022-08-21T06:18:52;9.70;;;4.43;;
52530;SDS011;38441;52.894;6.040;2022-08-21T06:21:21;11.05;;;3.90;;
52530;SDS011;38441;52.894;6.040;2022-08-21T06:23:47;7.22;;;3.97;;
52530;SDS011;38441;52.894;6.040;2022-08-21T06:26:13;11.23;;;4.15;;
52530;SDS011;38441;52.894;6.040;2022-08-21T06:28:56;7.35;;;3.58;;
52530;SDS011;38441;52.894;6.040;2022-08-21T06:31:24;9.35;;;3.97;;
52530;SDS011;38441;52.894;6.040;2022-08-21T06:33:50;8.93;;;3.90;;
52530;SDS011;38441;52.894;6.040;2022-08-21T06:36:17;6.90;;;3.83;;
52530;SDS011;38441;52.894;6.040;2022-08-21T06:38:43;6.72;;;3.63;;
52530;SDS011;38441;52.894;6.040;2022-08-21T06:41:10;8.93;;;3.72;;
52530;SDS011;38441;52.894;6.040;2022-08-21T06:43:36;11.75;;;4.03;;
52530;SDS011;38441;52.894;6.040;2022-08-21T06:46:02;8.75;;;4.03;;
52530;SDS011;38441;52.894;6.040;2022-08-21T06:48:28;9.30;;;4.05;;
52530;SDS011;38441;52.894;6.040;2022-08-21T06:50:57;10.50;;;3.47;;
52530;SDS011;38441;52.894;6.040;2022-08-21T06:53:23;8.02;;;3.85;;
52530;SDS011;38441;52.894;6.040;2022-08-21T06:55:49;11.68;;;3.70;;
52530;SDS011;38441;52.894;6.040;2022-08-21T06:58:35;9.60;;;3.63;;
52530;SDS011;38441;52.894;6.040;2022-08-21T07:01:01;10.20;;;3.60;;
52530;SDS011;38441;52.894;6.040;2022-08-21T07:03:34;9.18;;;3.50;;
52530;SDS011;38441;52.894;6.040;2022-08-21T07:06:00;8.15;;;3.75;;
52530;SDS011;38441;52.894;6.040;2022-08-21T07:08:27;8.90;;;3.30;;
52530;SDS011;38441;52.894;6.040;2022-08-21T07:10:54;7.15;;;3.00;;
52530;SDS011;38441;52.894;6.040;2022-08-21T07:13:20;7.80;;;3.00;;
52530;SDS011;38441;52.894;6.040;2022-08-21T07:18:35;8.77;;;3.00;;
52530;SDS011;38441;52.894;6.040;2022-08-21T07:21:14;10.38;;;3.22;;
52530;SDS011;38441;52.894;6.040;2022-08-21T18:11:17;4.70;;;1.23;;
52530;SDS011;38441;52.894;6.040;2022-08-21T18:13:48;6.63;;;1.15;;
52530;SDS011;38441;52.894;6.040;2022-08-21T18:16:15;6.53;;;1.27;;
52530;SDS011;38441;52.894;6.040;2022-08-21T18:18:43;5.82;;;1.55;;
52530;SDS011;38441;52.894;6.040;2022-08-21T18:21:12;4.97;;;1.20;;
52530;SDS011;38441;52.894;6.040;2022-08-21T18:23:40;4.53;;;1.42;;
52530;SDS011;38441;52.894;6.040;2022-08-21T18:26:06;6.80;;;1.30;;
52530;SDS011;38441;52.894;6.040;2022-08-21T18:28:31;8.00;;;1.92;;
52530;SDS011;38441;52.894;6.040;2022-08-21T18:30:59;6.70;;;1.48;;
52530;SDS011;38441;52.894;6.040;2022-08-21T18:33:25;4.78;;;1.40;;
52530;SDS011;38441;52.894;6.040;2022-08-21T18:35:50;7.18;;;1.77;;
52530;SDS011;38441;52.894;6.040;2022-08-21T18:38:19;7.30;;;1.65;;
52530;SDS011;38441;52.894;6.040;2022-08-21T18:40:49;6.32;;;1.20;;
52530;SDS011;38441;52.894;6.040;2022-08-21T18:45:43;8.35;;;1.50;;
52530;SDS011;38441;52.894;6.040;2022-08-21T18:48:11;7.72;;;1.42;;
52530;SDS011;38441;52.894;6.040;2022-08-21T18:50:40;8.95;;;1.70;;
52530;SDS011;38441;52.894;6.040;2022-08-21T18:53:08;6.60;;;1.52;;
52530;SDS011;38441;52.894;6.040;2022-08-21T18:55:34;7.25;;;1.65;;
52530;SDS011;38441;52.894;6.040;2022-08-21T18:58:03;5.72;;;1.40;;
52530;SDS011;38441;52.894;6.040;2022-08-21T19:00:31;7.38;;;1.38;;
52530;SDS011;38441;52.894;6.040;2022-08-21T19:03:09;6.05;;;1.75;;
52530;SDS011;38441;52.894;6.040;2022-08-21T19:05:41;7.43;;;1.50;;
52530;SDS011;38441;52.894;6.040;2022-08-21T19:08:11;7.75;;;2.15;;
52530;SDS011;38441;52.894;6.040;2022-08-21T19:10:40;9.07;;;2.00;;
52530;SDS011;38441;52.894;6.040;2022-08-21T19:13:09;7.93;;;1.60;;
52530;SDS011;38441;52.894;6.040;2022-08-21T19:15:38;7.63;;;1.40;;
52530;SDS011;38441;52.894;6.040;2022-08-21T19:18:11;7.47;;;1.65;;
52530;SDS011;38441;52.894;6.040;2022-08-21T19:20:43;7.15;;;1.60;;
52530;SDS011;38441;52.894;6.040;2022-08-21T19:23:10;6.25;;;1.48;;
52530;SDS011;38441;52.894;6.040;2022-08-21T19:25:39;6.97;;;1.95;;
52530;SDS011;38441;52.894;6.040;2022-08-21T19:28:09;7.70;;;1.70;;
52530;SDS011;38441;52.894;6.040;2022-08-21T19:30:40;8.77;;;1.55;;
52530;SDS011;38441;52.894;6.040;2022-08-21T19:33:11;6.75;;;1.63;;
52530;SDS011;38441;52.894;6.040;2022-08-21T19:35:40;8.02;;;1.88;;
52530;SDS011;38441;52.894;6.040;2022-08-21T19:38:06;7.85;;;2.13;;
52530;SDS011;38441;52.894;6.040;2022-08-21T19:40:32;7.65;;;1.73;;
52530;SDS011;38441;52.894;6.040;2022-08-21T19:42:58;7.63;;;1.92;;
52530;SDS011;38441;52.894;6.040;2022-08-21T19:45:23;7.13;;;1.58;;
52530;SDS011;38441;52.894;6.040;2022-08-21T19:47:49;5.38;;;1.70;;
52530;SDS011;38441;52.894;6.040;2022-08-21T19:50:16;5.57;;;1.58;;
52530;SDS011;38441;52.894;6.040;2022-08-21T19:52:42;5.63;;;1.45;;
52530;SDS011;38441;52.894;6.040;2022-08-21T19:55:07;6.50;;;2.35;;
52530;SDS011;38441;52.894;6.040;2022-08-21T19:57:35;4.30;;;1.40;;
52530;SDS011;38441;52.894;6.040;2022-08-21T20:00:05;5.75;;;1.50;;
52530;SDS011;38441;52.894;6.040;2022-08-21T20:02:34;7.13;;;1.85;;
52530;SDS011;38441;52.894;6.040;2022-08-21T20:04:59;6.60;;;1.95;;
52530;SDS011;38441;52.894;6.040;2022-08-21T20:07:58;7.97;;;1.90;;
52530;SDS011;38441;52.894;6.040;2022-08-21T20:10:26;5.25;;;1.70;;
52530;SDS011;38441;52.894;6.040;2022-08-21T20:12:51;6.00;;;1.98;;
52530;SDS011;38441;52.894;6.040;2022-08-21T20:15:18;6.38;;;1.75;;
52530;SDS011;38441;52.894;6.040;2022-08-21T20:17:46;8.02;;;1.95;;
52530;SDS011;38441;52.894;6.040;2022-08-21T20:20:12;8.10;;;2.03;;
52530;SDS011;38441;52.894;6.040;2022-08-21T20:22:38;5.85;;;1.83;;
52530;SDS011;38441;52.894;6.040;2022-08-21T20:25:06;7.63;;;1.92;;
52530;SDS011;38441;52.894;6.040;2022-08-21T20:27:32;7.10;;;1.70;;
52530;SDS011;38441;52.894;6.040;2022-08-21T20:29:58;5.15;;;1.95;;
52530;SDS011;38441;52.894;6.040;2022-08-21T20:32:24;4.47;;;1.65;;
52530;SDS011;38441;52.894;6.040;2022-08-21T20:34:52;7.32;;;1.80;;
52530;SDS011;38441;52.894;6.040;2022-08-21T20:37:18;6.28;;;1.73;;
52530;SDS011;38441;52.894;6.040;2022-08-21T20:39:43;6.90;;;1.55;;
52530;SDS011;38441;52.894;6.040;2022-08-21T20:42:09;7.75;;;2.13;;
52530;SDS011;38441;52.894;6.040;2022-08-21T20:44:38;6.93;;;1.88;;
52530;SDS011;38441;52.894;6.040;2022-08-21T20:47:04;7.57;;;1.98;;
52530;SDS011;38441;52.894;6.040;2022-08-21T20:49:32;5.80;;;2.00;;
52530;SDS011;38441;52.894;6.040;2022-08-21T20:52:01;6.18;;;2.08;;
52530;SDS011;38441;52.894;6.040;2022-08-21T20:54:38;6.75;;;1.98;;
52530;SDS011;38441;52.894;6.040;2022-08-21T20:57:16;6.43;;;1.77;;
52530;SDS011;38441;52.894;6.040;2022-08-21T21:00:17;4.90;;;2.00;;
52530;SDS011;38441;52.894;6.040;2022-08-21T21:03:18;5.88;;;1.65;;
52530;SDS011;38441;52.894;6.040;2022-08-21T21:06:07;6.25;;;1.60;;
52530;SDS011;38441;52.894;6.040;2022-08-21T21:11:36;5.32;;;1.60;;
52530;SDS011;38441;52.894;6.040;2022-08-21T21:14:13;5.28;;;1.92;;
52530;SDS011;38441;52.894;6.040;2022-08-21T21:17:04;7.13;;;2.40;;
52530;SDS011;38441;52.894;6.040;2022-08-21T21:20:02;3.92;;;1.55;;
52530;SDS011;38441;52.894;6.040;2022-08-21T21:23:13;6.63;;;2.10;;
52530;SDS011;38441;52.894;6.040;2022-08-21T21:25:52;5.05;;;1.73;;
52530;SDS011;38441;52.894;6.040;2022-08-21T21:28:54;6.80;;;2.15;;
52530;SDS011;38441;52.894;6.040;2022-08-21T21:31:26;7.00;;;2.22;;
52530;SDS011;38441;52.894;6.040;2022-08-21T21:33:53;7.10;;;2.00;;
52530;SDS011;38441;52.894;6.040;2022-08-21T21:36:25;6.63;;;1.90;;
52530;SDS011;38441;52.894;6.040;2022-08-21T21:39:10;5.47;;;1.92;;
52530;SDS011;38441;52.894;6.040;2022-08-21T21:41:58;7.03;;;2.08;;
52530;SDS011;38441;52.894;6.040;2022-08-21T21:44:51;6.07;;;2.45;;
52530;SDS011;38441;52.894;6.040;2022-08-21T22:05:02;6.03;;;2.15;;
52530;SDS011;38441;52.894;6.040;2022-08-21T22:12:33;6.43;;;1.65;;
52530;SDS011;38441;52.894;6.040;2022-08-21T22:15:01;5.30;;;1.70;;
52530;SDS011;38441;52.894;6.040;2022-08-21T22:19:59;5.75;;;1.67;;
52530;SDS011;38441;52.894;6.040;2022-08-21T22:22:30;7.70;;;2.15;;
52530;SDS011;38441;52.894;6.040;2022-08-21T22:24:59;6.70;;;2.03;;
52530;SDS011;38441;52.894;6.040;2022-08-21T22:27:33;7.93;;;2.20;;
52530;SDS011;38441;52.894;6.040;2022-08-21T22:30:02;5.95;;;2.03;;
52530;SDS011;38441;52.894;6.040;2022-08-21T22:32:46;6.03;;;2.53;;
52530;SDS011;38441;52.894;6.040;2022-08-21T22:37:52;7.35;;;2.28;;
52530;SDS011;38441;52.894;6.040;2022-08-21T22:40:25;7.32;;;2.45;;
52530;SDS011;38441;52.894;6.040;2022-08-21T22:43:00;6.00;;;2.00;;
52530;SDS011;38441;52.894;6.040;2022-08-21T22:45:29;7.72;;;2.30;;
52530;SDS011;38441;52.894;6.040;2022-08-21T22:48:02;6.37;;;2.30;;
52530;SDS011;38441;52.894;6.040;2022-08-21T22:50:31;5.22;;;2.35;;
52530;SDS011;38441;52.894;6.040;2022-08-21T22:52:59;7.95;;;2.65;;
52530;SDS011;38441;52.894;6.040;2022-08-21T22:55:36;7.72;;;2.50;;
52530;SDS011;38441;52.894;6.040;2022-08-21T23:00:51;7.15;;;2.35;;
52530;SDS011;38441;52.894;6.040;2022-08-21T23:03:28;8.85;;;2.13;;
52530;SDS011;38441;52.894;6.040;2022-08-21T23:06:05;6.13;;;2.50;;
52530;SDS011;38441;52.894;6.040;2022-08-21T23:11:52;7.32;;;2.67;;
52530;SDS011;38441;52.894;6.040;2022-08-21T23:14:21;6.18;;;2.35;;
52530;SDS011;38441;52.894;6.040;2022-08-21T23:16:50;7.15;;;2.47;;
52530;SDS011;38441;52.894;6.040;2022-08-21T23:19:27;6.70;;;2.67;;
52530;SDS011;38441;52.894;6.040;2022-08-21T23:22:03;7.10;;;2.50;;
52530;SDS011;38441;52.894;6.040;2022-08-21T23:30:11;9.60;;;3.00;;
52530;SDS011;38441;52.894;6.040;2022-08-21T23:38:46;6.18;;;2.90;;
52530;SDS011;38441;52.894;6.040;2022-08-21T23:44:21;6.82;;;2.50;;
52530;SDS011;38441;52.894;6.040;2022-08-21T23:52:44;8.90;;;2.55;;
52530;SDS011;38441;52.894;6.040;2022-08-21T23:55:42;6.10;;;2.30;;
52530;SDS011;38441;52.894;6.040;2022-08-21T23:58:26;9.00;;;2.83;;
